createdAt,value
2019-01-26T00:00:49.990Z,1005.33
2019-01-26T00:01:59.078Z,1005.33
2019-01-26T00:03:07.896Z,1005.29
2019-01-26T00:04:16.730Z,1005.3
2019-01-26T00:05:25.843Z,1005.28
2019-01-26T00:06:34.702Z,1005.31
2019-01-26T00:07:44.045Z,1005.34
2019-01-26T00:08:52.889Z,1005.32
2019-01-26T00:10:01.706Z,1005.32
2019-01-26T00:11:10.573Z,1005.28
2019-01-26T00:12:19.679Z,1005.33
2019-01-26T00:13:28.523Z,1005.36
2019-01-26T00:14:37.612Z,1005.29
2019-01-26T00:15:46.734Z,1005.3
2019-01-26T00:16:55.998Z,1005.31
2019-01-26T00:18:04.820Z,1005.29
2019-01-26T00:19:13.900Z,1005.28
2019-01-26T00:20:23.522Z,1005.26
2019-01-26T00:21:36.736Z,1005.2
2019-01-26T00:22:45.571Z,1005.16
2019-01-26T00:23:55.172Z,1005.11
2019-01-26T00:25:04.517Z,1005.09
2019-01-26T00:26:13.319Z,1005.08
2019-01-26T00:27:22.157Z,1005.08
2019-01-26T00:28:31.236Z,1005.09
2019-01-26T00:29:40.316Z,1005.15
2019-01-26T00:30:49.660Z,1005.18
2019-01-26T00:31:59.262Z,1005.21
2019-01-26T00:33:08.354Z,1005.18
2019-01-26T00:34:17.652Z,1005.13
2019-01-26T00:35:26.477Z,1005.16
2019-01-26T00:36:35.577Z,1005.23
2019-01-26T00:37:44.393Z,1005.21
2019-01-26T00:38:53.197Z,1005.16
2019-01-26T00:40:02.350Z,1005.19
2019-01-26T00:41:11.173Z,1005.21
2019-01-26T00:42:20.238Z,1005.23
2019-01-26T00:43:29.068Z,1005.19
2019-01-26T00:44:37.883Z,1005.19
2019-01-26T00:45:47.027Z,1005.14
2019-01-26T00:46:56.122Z,1005.14
2019-01-26T00:48:04.941Z,1005.2
2019-01-26T00:49:14.060Z,1005.19
2019-01-26T00:50:22.952Z,1005.2
2019-01-26T00:51:31.831Z,1005.17
2019-01-26T00:52:40.645Z,1005.21
2019-01-26T00:53:49.735Z,1005.18
2019-01-26T00:54:59.090Z,1005.18
2019-01-26T00:56:07.895Z,1005.18
2019-01-26T00:57:17.054Z,1005.16
2019-01-26T00:58:26.149Z,1005.17
2019-01-26T00:59:35.502Z,1005.2
2019-01-26T01:00:44.335Z,1005.2
2019-01-26T01:01:53.142Z,1005.17
2019-01-26T01:03:01.963Z,1005.15
2019-01-26T01:04:10.800Z,1005.18
2019-01-26T01:05:19.628Z,1005.19
2019-01-26T01:06:28.432Z,1005.2
2019-01-26T01:07:37.244Z,1005.22
2019-01-26T01:08:46.320Z,1005.17
2019-01-26T01:09:55.706Z,1005.13
2019-01-26T01:11:05.052Z,1005.1
2019-01-26T01:12:13.879Z,1005.12
2019-01-26T01:13:23.465Z,1005.13
2019-01-26T01:14:32.319Z,1005.15
2019-01-26T01:15:41.138Z,1005.1
2019-01-26T01:16:49.951Z,1005.08
2019-01-26T01:17:59.579Z,1005.06
2019-01-26T01:19:08.661Z,1005.12
2019-01-26T01:20:17.727Z,1005.08
2019-01-26T01:21:27.112Z,1005.1
2019-01-26T01:22:36.472Z,1005.12
2019-01-26T01:23:45.608Z,1005.15
2019-01-26T01:24:54.493Z,1005.13
2019-01-26T01:26:03.700Z,1005.1
2019-01-26T01:27:12.519Z,1005.09
2019-01-26T01:28:21.626Z,1004.99
2019-01-26T01:29:30.724Z,1004.97
2019-01-26T01:30:40.054Z,1004.96
2019-01-26T01:31:48.872Z,1004.99
2019-01-26T01:32:57.977Z,1005.01
2019-01-26T01:34:07.061Z,1005.03
2019-01-26T01:35:16.412Z,1005.01
2019-01-26T01:36:25.528Z,1005.05
2019-01-26T01:37:34.688Z,1005.09
2019-01-26T01:38:43.772Z,1005.1
2019-01-26T01:39:52.591Z,1005.06
2019-01-26T01:41:01.430Z,1005.05
2019-01-26T01:42:10.511Z,1005.02
2019-01-26T01:43:19.709Z,1005.07
2019-01-26T01:44:28.522Z,1005.04
2019-01-26T01:45:37.609Z,1004.99
2019-01-26T01:46:46.959Z,1004.9
2019-01-26T01:47:56.040Z,1004.86
2019-01-26T01:49:05.417Z,1004.89
2019-01-26T01:50:14.511Z,1004.93
2019-01-26T01:51:23.600Z,1004.96
2019-01-26T01:52:32.474Z,1004.98
2019-01-26T01:53:42.187Z,1004.99
2019-01-26T01:54:51.263Z,1005
2019-01-26T01:56:00.414Z,1004.99
2019-01-26T01:57:09.214Z,1004.98
2019-01-26T01:58:18.029Z,1004.94
2019-01-26T01:59:26.866Z,1004.96
2019-01-26T02:00:35.999Z,1004.98
2019-01-26T02:01:45.331Z,1004.93
2019-01-26T02:02:54.144Z,1004.92
2019-01-26T02:04:03.007Z,1004.86
2019-01-26T02:05:12.089Z,1004.87
2019-01-26T02:06:21.414Z,1004.89
2019-01-26T02:07:30.523Z,1004.88
2019-01-26T02:08:39.609Z,1004.88
2019-01-26T02:09:48.439Z,1004.87
2019-01-26T02:10:57.511Z,1004.82
2019-01-26T02:12:06.342Z,1004.81
2019-01-26T02:13:15.425Z,1004.78
2019-01-26T02:14:24.768Z,1004.76
2019-01-26T02:15:33.840Z,1004.75
2019-01-26T02:16:42.656Z,1004.67
2019-01-26T02:17:57.160Z,1004.68
2019-01-26T02:19:06.246Z,1004.62
2019-01-26T02:20:15.338Z,1004.63
2019-01-26T02:21:24.944Z,1004.63
2019-01-26T02:22:34.292Z,1004.6
2019-01-26T02:23:43.116Z,1004.56
2019-01-26T02:24:52.175Z,1004.53
2019-01-26T02:26:01.059Z,1004.51
2019-01-26T02:27:10.033Z,1004.53
2019-01-26T02:28:18.903Z,1004.5
2019-01-26T02:29:27.741Z,1004.52
2019-01-26T02:30:36.576Z,1004.52
2019-01-26T02:31:45.666Z,1004.45
2019-01-26T02:32:55.015Z,1004.43
2019-01-26T02:34:03.830Z,1004.46
2019-01-26T02:35:12.926Z,1004.48
2019-01-26T02:36:22.288Z,1004.43
2019-01-26T02:37:31.380Z,1004.43
2019-01-26T02:38:40.207Z,1004.45
2019-01-26T02:39:49.313Z,1004.47
2019-01-26T02:40:58.242Z,1004.46
2019-01-26T02:42:07.038Z,1004.45
2019-01-26T02:43:15.852Z,1004.4
2019-01-26T02:44:24.940Z,1004.37
2019-01-26T02:45:33.764Z,1004.41
2019-01-26T02:46:42.976Z,1004.42
2019-01-26T02:47:58.179Z,1004.39
2019-01-26T02:49:07.565Z,1004.39
2019-01-26T02:50:16.646Z,1004.37
2019-01-26T02:51:25.488Z,1004.35
2019-01-26T02:52:34.893Z,1004.33
2019-01-26T02:53:44.548Z,1004.34
2019-01-26T02:54:53.636Z,1004.37
2019-01-26T02:56:02.758Z,1004.36
2019-01-26T02:57:11.820Z,1004.32
2019-01-26T02:58:20.743Z,1004.3
2019-01-26T02:59:29.554Z,1004.29
2019-01-26T03:00:38.371Z,1004.31
2019-01-26T03:01:47.461Z,1004.24
2019-01-26T03:02:56.287Z,1004.25
2019-01-26T03:04:05.211Z,1004.27
2019-01-26T03:05:14.582Z,1004.22
2019-01-26T03:06:23.666Z,1004.26
2019-01-26T03:07:32.764Z,1004.19
2019-01-26T03:08:42.144Z,1004.19
2019-01-26T03:09:51.070Z,1004.15
2019-01-26T03:10:59.893Z,1004.13
2019-01-26T03:12:08.752Z,1004.19
2019-01-26T03:13:18.139Z,1004.19
2019-01-26T03:14:26.964Z,1004.16
2019-01-26T03:15:36.362Z,1004.09
2019-01-26T03:16:46.187Z,1004.07
2019-01-26T03:17:55.281Z,1004.09
2019-01-26T03:19:04.389Z,1004.02
2019-01-26T03:20:13.450Z,1004.02
2019-01-26T03:21:22.646Z,1004.05
2019-01-26T03:22:31.705Z,1004
2019-01-26T03:23:40.783Z,1003.99
2019-01-26T03:24:50.158Z,1003.99
2019-01-26T03:25:58.999Z,1003.98
2019-01-26T03:27:08.157Z,1004
2019-01-26T03:28:17.243Z,1003.96
2019-01-26T03:29:26.074Z,1003.91
2019-01-26T03:30:35.439Z,1003.89
2019-01-26T03:31:44.828Z,1003.86
2019-01-26T03:32:54.078Z,1003.82
2019-01-26T03:34:03.222Z,1003.81
2019-01-26T03:35:12.319Z,1003.82
2019-01-26T03:36:21.394Z,1003.75
2019-01-26T03:37:30.221Z,1003.77
2019-01-26T03:38:39.363Z,1003.74
2019-01-26T03:39:48.166Z,1003.76
2019-01-26T03:40:56.991Z,1003.68
2019-01-26T03:42:06.066Z,1003.69
2019-01-26T03:43:14.901Z,1003.66
2019-01-26T03:44:24.048Z,1003.65
2019-01-26T03:45:32.868Z,1003.68
2019-01-26T03:46:41.700Z,1003.64
2019-01-26T03:47:50.795Z,1003.59
2019-01-26T03:49:00.130Z,1003.57
2019-01-26T03:50:09.225Z,1003.57
2019-01-26T03:51:18.601Z,1003.59
2019-01-26T03:52:27.985Z,1003.65
2019-01-26T03:53:36.811Z,1003.66
2019-01-26T03:54:45.621Z,1003.58
2019-01-26T03:55:54.801Z,1003.54
2019-01-26T03:57:03.651Z,1003.52
2019-01-26T03:58:12.762Z,1003.54
2019-01-26T03:59:22.624Z,1003.51
2019-01-26T04:00:31.469Z,1003.52
2019-01-26T04:01:40.614Z,1003.53
2019-01-26T04:02:50.222Z,1003.47
2019-01-26T04:03:59.569Z,1003.39
2019-01-26T04:05:08.923Z,1003.35
2019-01-26T04:06:17.743Z,1003.34
2019-01-26T04:07:26.602Z,1003.27
2019-01-26T04:08:36.235Z,1003.25
2019-01-26T04:09:45.058Z,1003.24
2019-01-26T04:10:54.136Z,1003.22
2019-01-26T04:12:03.314Z,1003.18
2019-01-26T04:13:12.193Z,1003.16
2019-01-26T04:14:21.267Z,1003.12
2019-01-26T04:15:30.367Z,1003.07
2019-01-26T04:16:39.700Z,1003.05
2019-01-26T04:17:49.311Z,1003.06
2019-01-26T04:18:58.173Z,1003.01
2019-01-26T04:20:07.281Z,1003
2019-01-26T04:21:16.106Z,1003.01
2019-01-26T04:22:24.941Z,1002.98
2019-01-26T04:23:33.794Z,1002.97
2019-01-26T04:24:43.002Z,1002.97
2019-01-26T04:25:52.135Z,1002.9
2019-01-26T04:27:01.260Z,1002.92
2019-01-26T04:28:10.899Z,1002.87
2019-01-26T04:29:19.734Z,1002.85
2019-01-26T04:30:28.943Z,1002.83
2019-01-26T04:31:37.772Z,1002.81
2019-01-26T04:32:46.857Z,1002.78
2019-01-26T04:33:55.957Z,1002.74
2019-01-26T04:35:05.033Z,1002.73
2019-01-26T04:36:13.939Z,1002.68
2019-01-26T04:37:23.081Z,1002.64
2019-01-26T04:38:32.469Z,1002.62
2019-01-26T04:39:41.550Z,1002.62
2019-01-26T04:40:50.373Z,1002.59
2019-01-26T04:41:59.248Z,1002.59
2019-01-26T04:43:08.332Z,1002.53
2019-01-26T04:44:17.934Z,1002.54
2019-01-26T04:45:27.038Z,1002.58
2019-01-26T04:46:35.871Z,1002.56
2019-01-26T04:47:44.767Z,1002.52
2019-01-26T04:48:53.612Z,1002.48
2019-01-26T04:50:02.990Z,1002.44
2019-01-26T04:51:12.362Z,1002.46
2019-01-26T04:52:21.191Z,1002.45
2019-01-26T04:53:30.095Z,1002.46
2019-01-26T04:54:39.182Z,1002.42
2019-01-26T04:55:48.293Z,1002.4
2019-01-26T04:56:57.128Z,1002.38
2019-01-26T04:58:06.246Z,1002.32
2019-01-26T04:59:15.638Z,1002.34
2019-01-26T05:00:24.549Z,1002.33
2019-01-26T05:01:33.403Z,1002.27
2019-01-26T05:02:42.480Z,1002.28
2019-01-26T05:03:51.315Z,1002.28
2019-01-26T05:05:00.413Z,1002.3
2019-01-26T05:06:09.521Z,1002.25
2019-01-26T05:07:18.624Z,1002.25
2019-01-26T05:08:27.986Z,1002.25
2019-01-26T05:09:36.821Z,1002.24
2019-01-26T05:10:45.997Z,1002.21
2019-01-26T05:11:55.059Z,1002.19
2019-01-26T05:13:03.893Z,1002.17
2019-01-26T05:14:12.997Z,1002.18
2019-01-26T05:15:21.814Z,1002.16
2019-01-26T05:16:30.679Z,1002.17
2019-01-26T05:17:39.828Z,1002.15
2019-01-26T05:18:48.696Z,1002.14
2019-01-26T05:19:57.770Z,1002.15
2019-01-26T05:21:06.600Z,1002.14
2019-01-26T05:22:15.467Z,1002.14
2019-01-26T05:23:24.828Z,1002.17
2019-01-26T05:24:33.899Z,1002.18
2019-01-26T05:25:42.715Z,1002.14
2019-01-26T05:26:51.810Z,1002.16
2019-01-26T05:28:00.996Z,1002.13
2019-01-26T05:29:10.110Z,1002.13
2019-01-26T05:30:18.927Z,1002.1
2019-01-26T05:31:28.027Z,1002.14
2019-01-26T05:32:37.110Z,1002.12
2019-01-26T05:33:46.488Z,1002.12
2019-01-26T05:34:55.344Z,1002.14
2019-01-26T05:36:04.161Z,1002.13
2019-01-26T05:37:13.249Z,1002.12
2019-01-26T05:38:22.578Z,1002.1
2019-01-26T05:39:31.447Z,1002.09
2019-01-26T05:40:40.255Z,1002.13
2019-01-26T05:41:49.602Z,1002.17
2019-01-26T05:42:58.940Z,1002.12
2019-01-26T05:44:07.752Z,1002.17
2019-01-26T05:45:16.552Z,1002.14
2019-01-26T05:46:25.620Z,1002.12
2019-01-26T05:47:34.684Z,1002.13
2019-01-26T05:48:51.425Z,1002.09
2019-01-26T05:50:00.514Z,1002.14
2019-01-26T05:51:09.702Z,1002.1
2019-01-26T05:52:18.785Z,1002.11
2019-01-26T05:53:27.609Z,1002.08
2019-01-26T05:54:36.683Z,1002.13
2019-01-26T05:55:45.488Z,1002.11
2019-01-26T05:56:54.645Z,1002.09
2019-01-26T05:58:03.484Z,1002.11
2019-01-26T05:59:12.580Z,1002.11
2019-01-26T06:00:21.416Z,1002.13
2019-01-26T06:01:30.513Z,1002.1
2019-01-26T06:02:39.565Z,1002.08
2019-01-26T06:03:48.389Z,1002.09
2019-01-26T06:04:57.196Z,1002.08
2019-01-26T06:06:06.014Z,1002.05
2019-01-26T06:07:15.088Z,1002.07
2019-01-26T06:08:24.170Z,1002.1
2019-01-26T06:09:33.834Z,1002.04
2019-01-26T06:10:43.214Z,1002.06
2019-01-26T06:11:53.089Z,1002.05
2019-01-26T06:13:02.177Z,1002.04
2019-01-26T06:14:11.251Z,1002.03
2019-01-26T06:15:20.120Z,1002.02
2019-01-26T06:16:29.485Z,1001.99
2019-01-26T06:17:38.316Z,1002.03
2019-01-26T06:18:47.431Z,1001.98
2019-01-26T06:19:56.598Z,1002
2019-01-26T06:21:05.436Z,1002
2019-01-26T06:22:14.226Z,1001.94
2019-01-26T06:23:23.051Z,1002
2019-01-26T06:24:32.417Z,1002
2019-01-26T06:25:41.325Z,1002
2019-01-26T06:26:50.159Z,1002.01
2019-01-26T06:27:59.535Z,1002
2019-01-26T06:29:08.878Z,1001.98
2019-01-26T06:30:17.722Z,1001.97
2019-01-26T06:31:26.815Z,1002.02
2019-01-26T06:32:35.629Z,1002.03
2019-01-26T06:33:44.736Z,1001.97
2019-01-26T06:34:53.808Z,1002.02
2019-01-26T06:36:02.646Z,1002.02
2019-01-26T06:37:11.831Z,1002.01
2019-01-26T06:38:21.199Z,1002
2019-01-26T06:39:30.262Z,1002.02
2019-01-26T06:40:39.593Z,1002.06
2019-01-26T06:41:48.654Z,1001.99
2019-01-26T06:42:57.588Z,1002.04
2019-01-26T06:44:06.429Z,1002.03
2019-01-26T06:45:15.772Z,1002.02
2019-01-26T06:46:25.172Z,1002.02
2019-01-26T06:47:35.220Z,1001.96
2019-01-26T06:48:44.118Z,1001.99
2019-01-26T06:49:53.204Z,1001.94
2019-01-26T06:51:02.297Z,1001.96
2019-01-26T06:52:11.394Z,1001.95
2019-01-26T06:53:20.463Z,1001.98
2019-01-26T06:54:29.663Z,1001.96
2019-01-26T06:55:38.497Z,1002.01
2019-01-26T06:56:47.313Z,1001.98
2019-01-26T06:57:56.148Z,1001.96
2019-01-26T06:59:05.230Z,1001.99
2019-01-26T07:00:14.416Z,1002
2019-01-26T07:01:23.513Z,1001.98
2019-01-26T07:02:32.607Z,1002.01
2019-01-26T07:03:41.708Z,1002.02
2019-01-26T07:04:50.727Z,1002.02
2019-01-26T07:05:59.895Z,1001.98
2019-01-26T07:07:08.714Z,1002.03
2019-01-26T07:08:18.055Z,1002.02
2019-01-26T07:09:27.122Z,1002.03
2019-01-26T07:10:36.203Z,1002.05
2019-01-26T07:11:45.367Z,1002.05
2019-01-26T07:12:54.479Z,1002.04
2019-01-26T07:14:03.306Z,1002.03
2019-01-26T07:15:12.419Z,1002.02
2019-01-26T07:16:21.231Z,1002.08
2019-01-26T07:17:30.125Z,1002.08
2019-01-26T07:18:38.956Z,1002.04
2019-01-26T07:19:47.771Z,1002.05
2019-01-26T07:20:56.586Z,1002.04
2019-01-26T07:22:05.411Z,1002.11
2019-01-26T07:23:14.605Z,1002.1
2019-01-26T07:24:23.456Z,1002.12
2019-01-26T07:25:32.543Z,1002.11
2019-01-26T07:26:41.356Z,1002.18
2019-01-26T07:27:50.451Z,1002.16
2019-01-26T07:28:59.352Z,1002.19
2019-01-26T07:30:09.002Z,1002.17
2019-01-26T07:31:17.815Z,1002.17
2019-01-26T07:32:27.154Z,1002.14
2019-01-26T07:33:36.524Z,1002.16
2019-01-26T07:34:46.167Z,1002.13
2019-01-26T07:35:54.986Z,1002.14
2019-01-26T07:37:03.828Z,1002.17
2019-01-26T07:38:13.602Z,1002.14
2019-01-26T07:39:22.996Z,1002.14
2019-01-26T07:40:32.152Z,1002.1
2019-01-26T07:41:41.254Z,1002.15
2019-01-26T07:42:50.365Z,1002.12
2019-01-26T07:43:59.429Z,1002.11
2019-01-26T07:45:08.268Z,1002.11
2019-01-26T07:46:17.157Z,1002.13
2019-01-26T07:47:26.249Z,1002.11
2019-01-26T07:48:35.082Z,1002.12
2019-01-26T07:49:44.755Z,1002.14
2019-01-26T07:50:53.582Z,1002.12
2019-01-26T07:52:02.761Z,1002.2
2019-01-26T07:53:11.591Z,1002.17
2019-01-26T07:54:20.955Z,1002.17
2019-01-26T07:55:29.818Z,1002.17
2019-01-26T07:56:38.632Z,1002.2
2019-01-26T07:57:47.487Z,1002.21
2019-01-26T07:58:57.109Z,1002.17
2019-01-26T08:00:06.194Z,1002.19
2019-01-26T08:01:15.818Z,1002.19
2019-01-26T08:02:24.634Z,1002.16
2019-01-26T08:03:34.081Z,1002.16
2019-01-26T08:04:43.177Z,1002.17
2019-01-26T08:05:51.989Z,1002.14
2019-01-26T08:07:00.804Z,1002.21
2019-01-26T08:08:09.622Z,1002.18
2019-01-26T08:09:18.691Z,1002.17
2019-01-26T08:10:27.521Z,1002.2
2019-01-26T08:11:36.860Z,1002.18
2019-01-26T08:12:47.293Z,1002.19
2019-01-26T08:13:56.118Z,1002.19
2019-01-26T08:15:05.038Z,1002.17
2019-01-26T08:16:14.636Z,1002.2
2019-01-26T08:17:23.988Z,1002.18
2019-01-26T08:18:33.103Z,1002.19
2019-01-26T08:19:41.908Z,1002.15
2019-01-26T08:20:51.344Z,1002.2
2019-01-26T08:22:00.205Z,1002.19
2019-01-26T08:23:09.009Z,1002.2
2019-01-26T08:24:18.111Z,1002.21
2019-01-26T08:25:26.924Z,1002.19
2019-01-26T08:26:36.121Z,1002.23
2019-01-26T08:27:45.468Z,1002.26
2019-01-26T08:28:55.076Z,1002.22
2019-01-26T08:30:04.690Z,1002.24
2019-01-26T08:31:13.496Z,1002.27
2019-01-26T08:32:22.635Z,1002.24
2019-01-26T08:33:32.225Z,1002.24
2019-01-26T08:34:41.058Z,1002.23
2019-01-26T08:35:50.654Z,1002.25
2019-01-26T08:37:00.021Z,1002.26
2019-01-26T08:38:08.837Z,1002.31
2019-01-26T08:39:17.930Z,1002.29
2019-01-26T08:40:26.998Z,1002.29
2019-01-26T08:41:36.092Z,1002.3
2019-01-26T08:42:45.184Z,1002.29
2019-01-26T08:43:54.605Z,1002.28
2019-01-26T08:45:03.454Z,1002.34
2019-01-26T08:46:12.790Z,1002.3
2019-01-26T08:47:21.607Z,1002.37
2019-01-26T08:48:31.226Z,1002.34
2019-01-26T08:49:40.802Z,1002.34
2019-01-26T08:50:49.891Z,1002.33
2019-01-26T08:51:58.747Z,1002.43
2019-01-26T08:53:08.122Z,1002.37
2019-01-26T08:54:17.220Z,1002.41
2019-01-26T08:55:26.143Z,1002.38
2019-01-26T08:56:34.950Z,1002.36
2019-01-26T08:57:43.766Z,1002.37
2019-01-26T08:58:52.602Z,1002.38
2019-01-26T09:00:01.706Z,1002.35
2019-01-26T09:01:11.178Z,1002.34
2019-01-26T09:02:25.386Z,1002.39
2019-01-26T09:03:35.159Z,1002.37
2019-01-26T09:04:44.783Z,1002.38
2019-01-26T09:05:53.623Z,1002.34
2019-01-26T09:07:02.767Z,1002.37
2019-01-26T09:08:11.606Z,1002.43
2019-01-26T09:09:20.426Z,1002.4
2019-01-26T09:10:29.503Z,1002.41
2019-01-26T09:11:38.334Z,1002.34
2019-01-26T09:12:47.238Z,1002.43
2019-01-26T09:13:56.049Z,1002.38
2019-01-26T09:15:05.130Z,1002.41
2019-01-26T09:16:14.200Z,1002.38
2019-01-26T09:17:23.035Z,1002.44
2019-01-26T09:18:38.693Z,1002.41
2019-01-26T09:19:48.098Z,1002.4
2019-01-26T09:20:57.689Z,1002.39
2019-01-26T09:22:06.525Z,1002.4
2019-01-26T09:23:15.868Z,1002.36
2019-01-26T09:24:25.302Z,1002.43
2019-01-26T09:25:35.131Z,1002.45
2019-01-26T09:26:44.503Z,1002.44
2019-01-26T09:27:53.324Z,1002.4
2019-01-26T09:29:02.389Z,1002.44
2019-01-26T09:30:11.460Z,1002.43
2019-01-26T09:31:20.809Z,1002.43
2019-01-26T09:32:29.620Z,1002.42
2019-01-26T09:33:38.700Z,1002.4
2019-01-26T09:34:48.035Z,1002.45
2019-01-26T09:35:58.310Z,1002.43
2019-01-26T09:37:07.375Z,1002.39
2019-01-26T09:38:16.729Z,1002.42
2019-01-26T09:39:25.583Z,1002.4
2019-01-26T09:40:34.927Z,1002.38
2019-01-26T09:41:45.221Z,1002.4
2019-01-26T09:42:54.018Z,1002.36
2019-01-26T09:44:03.368Z,1002.36
2019-01-26T09:45:12.438Z,1002.38
2019-01-26T09:46:21.501Z,1002.39
2019-01-26T09:47:30.677Z,1002.4
2019-01-26T09:48:46.020Z,1002.38
2019-01-26T09:49:55.193Z,1002.43
2019-01-26T09:51:04.582Z,1002.41
2019-01-26T09:52:13.932Z,1002.41
2019-01-26T09:53:23.406Z,1002.38
2019-01-26T09:54:32.742Z,1002.38
2019-01-26T09:55:42.070Z,1002.4
2019-01-26T09:56:51.154Z,1002.37
2019-01-26T09:57:59.970Z,1002.38
2019-01-26T09:59:08.888Z,1002.37
2019-01-26T10:00:18.291Z,1002.34
2019-01-26T10:01:27.128Z,1002.37
2019-01-26T10:02:35.962Z,1002.38
2019-01-26T10:03:45.064Z,1002.36
2019-01-26T10:04:54.162Z,1002.37
2019-01-26T10:06:03.254Z,1002.35
2019-01-26T10:07:12.089Z,1002.36
2019-01-26T10:08:21.691Z,1002.38
2019-01-26T10:09:30.512Z,1002.33
2019-01-26T10:10:40.246Z,1002.38
2019-01-26T10:11:49.321Z,1002.35
2019-01-26T10:12:58.421Z,1002.33
2019-01-26T10:14:07.269Z,1002.37
2019-01-26T10:15:16.138Z,1002.33
2019-01-26T10:16:25.595Z,1002.38
2019-01-26T10:17:34.426Z,1002.34
2019-01-26T10:18:53.599Z,1002.37
2019-01-26T10:20:03.294Z,1002.38
2019-01-26T10:21:12.647Z,1002.36
2019-01-26T10:22:22.627Z,1002.37
2019-01-26T10:23:32.585Z,1002.33
2019-01-26T10:24:41.395Z,1002.33
2019-01-26T10:25:50.473Z,1002.31
2019-01-26T10:27:00.102Z,1002.34
2019-01-26T10:28:09.207Z,1002.34
2019-01-26T10:29:18.024Z,1002.31
2019-01-26T10:30:27.128Z,1002.26
2019-01-26T10:31:36.468Z,1002.31
2019-01-26T10:32:46.902Z,1002.28
2019-01-26T10:33:55.721Z,1002.28
2019-01-26T10:35:05.061Z,1002.3
2019-01-26T10:36:14.143Z,1002.3
2019-01-26T10:37:24.011Z,1002.26
2019-01-26T10:38:33.100Z,1002.25
2019-01-26T10:39:42.296Z,1002.23
2019-01-26T10:40:51.693Z,1002.26
2019-01-26T10:42:00.773Z,1002.26
2019-01-26T10:43:10.154Z,1002.22
2019-01-26T10:44:18.964Z,1002.24
2019-01-26T10:45:28.191Z,1002.22
2019-01-26T10:46:37.007Z,1002.19
2019-01-26T10:47:46.081Z,1002.17
2019-01-26T10:49:00.555Z,1002.18
2019-01-26T10:50:09.615Z,1002.16
2019-01-26T10:51:18.496Z,1002.16
2019-01-26T10:52:27.327Z,1002.17
2019-01-26T10:53:36.966Z,1002.22
2019-01-26T10:54:45.795Z,1002.15
2019-01-26T10:55:54.604Z,1002.14
2019-01-26T10:57:04.073Z,1002.22
2019-01-26T10:58:13.159Z,1002.16
2019-01-26T10:59:22.518Z,1002.16
2019-01-26T11:00:31.362Z,1002.11
2019-01-26T11:01:40.177Z,1002.1
2019-01-26T11:02:49.270Z,1002.09
2019-01-26T11:03:58.063Z,1002.02
2019-01-26T11:05:07.139Z,1002.06
2019-01-26T11:06:15.985Z,1002.03
2019-01-26T11:07:25.102Z,1002.05
2019-01-26T11:08:34.017Z,1002.03
2019-01-26T11:09:43.095Z,1002.05
2019-01-26T11:10:52.214Z,1002.08
2019-01-26T11:12:01.333Z,1002.02
2019-01-26T11:13:10.675Z,1002.05
2019-01-26T11:14:20.027Z,1002.03
2019-01-26T11:15:29.384Z,1001.99
2019-01-26T11:16:38.969Z,1002
2019-01-26T11:17:47.778Z,1002
2019-01-26T11:18:57.153Z,1002.01
2019-01-26T11:20:12.539Z,1001.92
2019-01-26T11:21:21.644Z,1002
2019-01-26T11:22:32.634Z,1001.97
2019-01-26T11:23:41.529Z,1001.96
2019-01-26T11:24:50.653Z,1001.93
2019-01-26T11:25:59.569Z,1001.92
2019-01-26T11:27:08.403Z,1001.93
2019-01-26T11:28:17.260Z,1001.96
2019-01-26T11:29:26.334Z,1001.93
2019-01-26T11:30:35.145Z,1001.87
2019-01-26T11:31:44.823Z,1001.86
2019-01-26T11:32:54.174Z,1001.85
2019-01-26T11:34:02.999Z,1001.85
2019-01-26T11:35:11.816Z,1001.9
2019-01-26T11:36:20.728Z,1001.87
2019-01-26T11:37:29.534Z,1001.84
2019-01-26T11:38:38.379Z,1001.87
2019-01-26T11:39:47.216Z,1001.84
2019-01-26T11:40:56.296Z,1001.82
2019-01-26T11:42:05.977Z,1001.8
2019-01-26T11:43:15.353Z,1001.84
2019-01-26T11:44:24.447Z,1001.78
2019-01-26T11:45:33.260Z,1001.73
2019-01-26T11:46:42.141Z,1001.71
2019-01-26T11:47:51.235Z,1001.7
2019-01-26T11:49:00.358Z,1001.7
2019-01-26T11:50:16.311Z,1001.66
2019-01-26T11:51:25.475Z,1001.63
2019-01-26T11:52:34.303Z,1001.69
2019-01-26T11:53:43.101Z,1001.64
2019-01-26T11:54:52.026Z,1001.63
2019-01-26T11:56:01.111Z,1001.56
2019-01-26T11:57:10.523Z,1001.55
2019-01-26T11:58:19.591Z,1001.54
2019-01-26T11:59:28.702Z,1001.54
2019-01-26T12:00:38.472Z,1001.53
2019-01-26T12:01:47.616Z,1001.52
2019-01-26T12:02:56.710Z,1001.51
2019-01-26T12:04:06.077Z,1001.47
2019-01-26T12:05:15.437Z,1001.49
2019-01-26T12:06:24.282Z,1001.5
2019-01-26T12:07:33.121Z,1001.49
2019-01-26T12:08:41.947Z,1001.47
2019-01-26T12:09:51.039Z,1001.47
2019-01-26T12:11:00.392Z,1001.47
2019-01-26T12:12:09.515Z,1001.42
2019-01-26T12:13:18.335Z,1001.39
2019-01-26T12:14:27.435Z,1001.42
2019-01-26T12:15:36.812Z,1001.44
2019-01-26T12:16:45.616Z,1001.43
2019-01-26T12:17:54.504Z,1001.4
2019-01-26T12:19:03.850Z,1001.42
2019-01-26T12:20:12.728Z,1001.4
2019-01-26T12:21:21.654Z,1001.39
2019-01-26T12:22:30.469Z,1001.39
2019-01-26T12:23:39.670Z,1001.39
2019-01-26T12:24:48.482Z,1001.35
2019-01-26T12:25:58.365Z,1001.37
2019-01-26T12:27:07.474Z,1001.31
2019-01-26T12:28:16.295Z,1001.28
2019-01-26T12:29:25.215Z,1001.25
2019-01-26T12:30:34.073Z,1001.28
2019-01-26T12:31:43.181Z,1001.22
2019-01-26T12:32:52.282Z,1001.23
2019-01-26T12:34:01.377Z,1001.25
2019-01-26T12:35:10.433Z,1001.2
2019-01-26T12:36:19.266Z,1001.23
2019-01-26T12:37:28.395Z,1001.17
2019-01-26T12:38:37.224Z,1001.18
2019-01-26T12:39:46.303Z,1001.15
2019-01-26T12:40:55.489Z,1001.12
2019-01-26T12:42:04.590Z,1001.11
2019-01-26T12:43:13.663Z,1001.11
2019-01-26T12:44:22.767Z,1001.07
2019-01-26T12:45:31.840Z,1001.08
2019-01-26T12:46:40.703Z,1001.09
2019-01-26T12:47:49.509Z,1001.02
2019-01-26T12:48:58.842Z,1001.01
2019-01-26T12:50:07.670Z,1001.03
2019-01-26T12:51:17.297Z,1001
2019-01-26T12:52:26.538Z,1001.02
2019-01-26T12:53:35.625Z,1001.04
2019-01-26T12:54:44.491Z,1001.04
2019-01-26T12:55:53.300Z,1001.01
2019-01-26T12:57:02.117Z,1001.05
2019-01-26T12:58:10.999Z,1001.02
2019-01-26T12:59:20.379Z,1001
2019-01-26T13:00:29.470Z,1000.95
2019-01-26T13:01:38.536Z,1000.97
2019-01-26T13:02:49.335Z,1000.96
2019-01-26T13:03:58.396Z,1000.97
2019-01-26T13:05:07.766Z,1000.99
2019-01-26T13:06:17.371Z,1000.97
2019-01-26T13:07:26.464Z,1000.91
2019-01-26T13:08:35.287Z,1000.93
2019-01-26T13:09:45.519Z,1000.93
2019-01-26T13:10:54.477Z,1000.88
2019-01-26T13:12:03.304Z,1000.9
2019-01-26T13:13:12.368Z,1000.9
2019-01-26T13:14:21.171Z,1000.88
2019-01-26T13:15:30.061Z,1000.85
2019-01-26T13:16:39.171Z,1000.84
2019-01-26T13:17:47.971Z,1000.82
2019-01-26T13:18:56.773Z,1000.8
2019-01-26T13:20:05.590Z,1000.82
2019-01-26T13:21:14.493Z,1000.74
2019-01-26T13:22:23.629Z,1000.76
2019-01-26T13:23:32.761Z,1000.71
2019-01-26T13:24:41.865Z,1000.73
2019-01-26T13:25:50.696Z,1000.68
2019-01-26T13:26:59.762Z,1000.66
2019-01-26T13:28:08.592Z,1000.67
2019-01-26T13:29:17.674Z,1000.66
2019-01-26T13:30:26.762Z,1000.61
2019-01-26T13:31:35.579Z,1000.62
2019-01-26T13:32:44.770Z,1000.6
2019-01-26T13:33:53.846Z,1000.59
2019-01-26T13:35:02.675Z,1000.54
2019-01-26T13:36:11.761Z,1000.56
2019-01-26T13:37:20.578Z,1000.56
2019-01-26T13:38:29.659Z,1000.59
2019-01-26T13:39:38.765Z,1000.53
2019-01-26T13:40:47.597Z,1000.51
2019-01-26T13:41:56.710Z,1000.5
2019-01-26T13:43:05.781Z,1000.47
2019-01-26T13:44:14.718Z,1000.5
2019-01-26T13:45:24.375Z,1000.48
2019-01-26T13:46:33.701Z,1000.42
2019-01-26T13:47:42.797Z,1000.42
2019-01-26T13:48:51.812Z,1000.41
2019-01-26T13:50:00.753Z,1000.39
2019-01-26T13:51:13.017Z,1000.36
2019-01-26T13:52:22.309Z,1000.34
2019-01-26T13:53:31.403Z,1000.39
2019-01-26T13:54:40.489Z,1000.34
2019-01-26T13:55:49.363Z,1000.35
2019-01-26T13:56:58.234Z,1000.33
2019-01-26T13:58:07.373Z,1000.4
2019-01-26T13:59:16.787Z,1000.36
2019-01-26T14:00:25.611Z,1000.37
2019-01-26T14:01:35.404Z,1000.3